createdAt,value
2022-11-16T00:01:14.202Z,6.20
2022-11-16T00:03:42.216Z,5.47
2022-11-16T00:06:10.963Z,5.20
2022-11-16T00:11:08.585Z,5.75
2022-11-16T00:13:37.123Z,3.78
2022-11-16T00:16:06.357Z,5.53
2022-11-16T00:18:35.960Z,3.72
2022-11-16T00:21:05.781Z,5.68
2022-11-16T00:23:35.867Z,5.22
2022-11-16T00:26:05.039Z,4.82
2022-11-16T00:28:33.190Z,4.78
2022-11-16T00:31:01.024Z,4.85
2022-11-16T00:33:28.932Z,5.28
2022-11-16T00:35:58.011Z,5.75
2022-11-16T00:38:25.446Z,6.20
2022-11-16T00:40:52.893Z,6.18
2022-11-16T00:43:20.401Z,5.28
2022-11-16T00:45:47.835Z,5.55
2022-11-16T00:48:15.256Z,6.47
2022-11-16T00:50:42.717Z,5.65
2022-11-16T00:53:14.491Z,5.75
2022-11-16T00:55:41.965Z,5.95
2022-11-16T00:58:09.401Z,5.70
2022-11-16T01:00:37.228Z,5.35
2022-11-16T01:03:05.152Z,6.47
2022-11-16T01:05:33.167Z,6.32
2022-11-16T01:08:01.101Z,5.10
2022-11-16T01:10:30.387Z,5.47
2022-11-16T01:12:57.102Z,6.20
2022-11-16T01:15:26.898Z,6.43
2022-11-16T01:17:56.163Z,5.95
2022-11-16T01:20:26.147Z,6.45
2022-11-16T01:22:54.704Z,6.05
2022-11-16T01:25:22.611Z,5.93
2022-11-16T01:27:51.411Z,7.20
2022-11-16T01:30:19.048Z,6.45
2022-11-16T01:32:46.571Z,6.00
2022-11-16T01:35:17.856Z,6.40
2022-11-16T01:37:45.609Z,6.45
2022-11-16T01:40:14.287Z,6.80
2022-11-16T01:42:42.183Z,5.68
2022-11-16T01:45:22.440Z,6.13
2022-11-16T01:47:50.068Z,6.07
2022-11-16T01:50:19.784Z,6.35
2022-11-16T01:52:55.462Z,5.93
2022-11-16T01:55:24.063Z,4.70
2022-11-16T01:57:51.912Z,6.03
2022-11-16T02:00:20.872Z,5.55
2022-11-16T02:02:48.291Z,5.85
2022-11-16T02:05:19.513Z,4.43
2022-11-16T02:08:29.207Z,5.78
2022-11-16T02:11:07.683Z,6.00
2022-11-16T02:13:46.600Z,5.90
2022-11-16T02:16:28.063Z,6.00
2022-11-16T02:19:06.548Z,5.28
2022-11-16T02:21:42.060Z,6.00
2022-11-16T02:24:37.480Z,6.57
2022-11-16T02:27:30.744Z,5.68
2022-11-16T02:32:32.439Z,5.85
2022-11-16T02:35:07.260Z,5.85
2022-11-16T02:37:38.978Z,5.88
2022-11-16T02:40:12.163Z,6.25
2022-11-16T02:42:44.827Z,5.00
2022-11-16T02:45:19.237Z,5.75
2022-11-16T02:47:49.072Z,6.30
2022-11-16T02:50:21.233Z,6.05
2022-11-16T02:52:48.701Z,6.78
2022-11-16T02:55:16.534Z,5.55
2022-11-16T02:57:49.937Z,6.55
2022-11-16T03:00:23.733Z,4.95
2022-11-16T03:02:59.458Z,6.30
2022-11-16T03:05:33.409Z,7.88
2022-11-16T03:08:12.230Z,6.38
2022-11-16T03:10:59.969Z,6.97
2022-11-16T03:13:31.132Z,5.93
2022-11-16T03:16:04.043Z,6.53
2022-11-16T03:18:32.009Z,7.00
2022-11-16T03:21:06.987Z,6.93
2022-11-16T03:23:34.659Z,6.90
2022-11-16T03:26:07.547Z,6.82
2022-11-16T03:28:37.919Z,7.35
2022-11-16T03:31:12.137Z,6.82
2022-11-16T03:33:44.555Z,6.85
2022-11-16T03:36:17.524Z,7.07
2022-11-16T03:38:48.188Z,6.65
2022-11-16T03:41:16.179Z,5.78
2022-11-16T03:43:45.355Z,7.47
2022-11-16T03:46:15.724Z,7.28
2022-11-16T03:48:43.484Z,7.45
2022-11-16T03:51:12.152Z,7.18
2022-11-16T03:53:39.660Z,7.05
2022-11-16T03:56:07.558Z,7.28
2022-11-16T03:58:35.138Z,7.68
2022-11-16T04:01:04.129Z,7.78
2022-11-16T04:03:33.055Z,8.02
2022-11-16T04:06:18.295Z,8.02
2022-11-16T04:09:03.540Z,7.57
2022-11-16T04:11:48.723Z,6.97
2022-11-16T04:14:38.529Z,7.95
2022-11-16T04:17:29.205Z,7.40
2022-11-16T04:20:15.935Z,8.18
2022-11-16T04:23:06.273Z,9.15
2022-11-16T04:25:36.576Z,7.40
2022-11-16T04:28:16.467Z,8.88
2022-11-16T04:31:03.987Z,8.80
2022-11-16T04:33:50.299Z,6.95
2022-11-16T04:36:36.983Z,7.85
2022-11-16T04:39:05.127Z,7.65
2022-11-16T04:41:50.869Z,7.20
2022-11-16T04:44:18.589Z,9.18
2022-11-16T04:47:04.078Z,7.40
2022-11-16T04:49:31.510Z,8.15
2022-11-16T04:52:00.544Z,7.68
2022-11-16T04:54:27.975Z,6.20
2022-11-16T04:56:55.431Z,6.88
2022-11-16T04:59:22.851Z,9.02
2022-11-16T05:02:07.848Z,7.28
2022-11-16T05:04:35.343Z,6.00
2022-11-16T05:07:10.473Z,4.88
2022-11-16T05:09:41.330Z,8.00
2022-11-16T05:12:09.107Z,8.55
2022-11-16T05:14:36.794Z,8.38
2022-11-16T05:17:04.669Z,4.25
2022-11-16T05:19:49.748Z,7.40
2022-11-16T05:22:18.510Z,7.03
2022-11-16T05:29:42.420Z,4.32
2022-11-16T05:32:11.505Z,6.72
2022-11-16T05:34:39.848Z,5.70
2022-11-16T05:37:07.418Z,5.22
2022-11-16T05:39:36.490Z,5.15
2022-11-16T05:42:05.263Z,7.60
2022-11-16T05:47:00.743Z,4.82
2022-11-16T05:49:28.350Z,3.60
2022-11-16T05:51:55.901Z,4.35
2022-11-16T05:54:25.811Z,6.85
2022-11-16T05:56:55.572Z,8.02
2022-11-16T05:59:24.258Z,7.05
2022-11-16T06:01:52.047Z,7.78
2022-11-16T06:04:24.462Z,5.30
2022-11-16T06:06:52.860Z,7.57
2022-11-16T06:09:20.383Z,3.03
2022-11-16T06:11:47.841Z,6.45
2022-11-16T06:14:16.676Z,5.07
2022-11-16T06:21:38.760Z,5.50
2022-11-16T06:24:08.821Z,6.38
2022-11-16T06:26:36.959Z,6.72
2022-11-16T06:29:04.541Z,6.10
2022-11-16T06:31:33.371Z,6.88
2022-11-16T06:38:55.608Z,2.55
2022-11-16T06:41:23.292Z,5.90
2022-11-16T06:43:50.742Z,4.75
2022-11-16T06:46:18.223Z,6.43
2022-11-16T06:48:47.020Z,7.55
2022-11-16T06:58:37.775Z,3.60
2022-11-16T07:01:08.902Z,6.47
2022-11-16T07:03:36.455Z,6.82
2022-11-16T07:06:08.733Z,7.68
2022-11-16T07:08:36.572Z,8.15
2022-11-16T07:11:04.947Z,5.20
2022-11-16T07:13:33.287Z,7.28
2022-11-16T07:16:04.539Z,7.88
2022-11-16T07:18:34.831Z,7.93
2022-11-16T07:21:07.854Z,8.25
2022-11-16T07:23:35.951Z,5.05
2022-11-16T07:26:04.954Z,6.47
2022-11-16T07:28:33.394Z,7.15
2022-11-16T07:31:02.477Z,6.57
2022-11-16T07:38:30.551Z,4.13
2022-11-16T07:41:00.914Z,4.20
2022-11-16T07:43:29.431Z,6.60
2022-11-16T07:46:20.034Z,6.30
2022-11-16T07:48:46.374Z,6.68
2022-11-16T07:51:16.620Z,4.15
2022-11-16T07:53:45.534Z,6.82
2022-11-16T07:56:13.832Z,6.65
2022-11-16T07:58:41.479Z,5.13
2022-11-16T08:01:11.671Z,7.00
2022-11-16T08:03:40.723Z,6.90
2022-11-16T08:06:12.704Z,6.78
2022-11-16T08:08:40.455Z,7.78
2022-11-16T08:11:11.911Z,7.47
2022-11-16T08:13:40.865Z,3.03
2022-11-16T08:16:11.205Z,6.95
2022-11-16T08:18:39.425Z,7.22
2022-11-16T08:21:08.656Z,5.95
2022-11-16T08:23:36.666Z,8.73
2022-11-16T08:26:06.336Z,8.13
2022-11-16T08:28:35.456Z,7.57
2022-11-16T08:31:08.852Z,8.00
2022-11-16T08:33:36.313Z,6.20
2022-11-16T08:36:09.482Z,6.78
2022-11-16T08:38:40.458Z,7.15
2022-11-16T08:41:08.378Z,7.03
2022-11-16T08:43:39.374Z,7.85
2022-11-16T08:46:07.268Z,7.95
2022-11-16T08:48:35.120Z,8.70
2022-11-16T08:51:20.492Z,7.68
2022-11-16T08:53:49.286Z,7.05
2022-11-16T08:56:19.272Z,7.22
2022-11-16T08:58:51.293Z,6.40
2022-11-16T09:01:24.311Z,3.60
2022-11-16T09:03:53.237Z,7.20
2022-11-16T09:06:20.817Z,7.25
2022-11-16T09:08:49.440Z,7.82
2022-11-16T09:11:19.431Z,8.10
2022-11-16T09:13:49.523Z,8.07
2022-11-16T09:16:17.643Z,8.50
2022-11-16T09:18:46.286Z,7.72
2022-11-16T09:21:17.076Z,7.35
2022-11-16T09:23:44.500Z,6.72
2022-11-16T09:26:13.626Z,8.95
2022-11-16T09:28:41.155Z,7.22
2022-11-16T09:31:10.225Z,8.60
2022-11-16T09:33:38.239Z,8.93
2022-11-16T09:36:07.764Z,7.50
2022-11-16T09:38:55.666Z,8.65
2022-11-16T09:41:39.709Z,8.13
2022-11-16T09:44:15.664Z,7.63
2022-11-16T09:46:49.386Z,7.45
2022-11-16T09:49:22.126Z,7.53
2022-11-16T09:51:52.347Z,8.05
2022-11-16T09:54:23.695Z,7.25
2022-11-16T09:56:54.984Z,7.78
2022-11-16T09:59:25.794Z,8.45
2022-11-16T10:01:58.948Z,8.10
2022-11-16T10:04:38.809Z,8.10
2022-11-16T10:07:13.145Z,10.38
2022-11-16T10:09:40.922Z,9.88
2022-11-16T10:12:15.172Z,8.85
2022-11-16T10:15:15.111Z,9.73
2022-11-16T10:18:04.312Z,7.30
2022-11-16T10:21:01.979Z,9.00
2022-11-16T10:23:42.828Z,9.82
2022-11-16T10:26:22.050Z,8.88
2022-11-16T10:29:00.872Z,7.53
2022-11-16T10:31:45.751Z,6.65
2022-11-16T10:34:20.895Z,5.47
2022-11-16T10:36:48.395Z,9.00
2022-11-16T10:39:18.738Z,11.63
2022-11-16T10:41:49.380Z,8.48
2022-11-16T10:44:22.823Z,9.20
2022-11-16T10:47:01.121Z,10.55
2022-11-16T10:49:40.799Z,10.45
2022-11-16T10:52:08.416Z,10.13
2022-11-16T10:54:38.910Z,12.38
2022-11-16T10:57:13.962Z,9.20
2022-11-16T10:59:43.718Z,7.15
2022-11-16T11:02:31.137Z,8.48
2022-11-16T11:05:05.460Z,8.02
2022-11-16T11:07:35.254Z,10.88
2022-11-16T11:10:03.068Z,9.00
2022-11-16T11:12:39.648Z,7.95
2022-11-16T11:15:25.816Z,7.78
2022-11-16T11:18:13.253Z,10.38
2022-11-16T11:20:45.254Z,15.23
2022-11-16T11:23:16.766Z,9.43
2022-11-16T11:25:52.090Z,6.47
2022-11-16T11:28:23.791Z,6.75
2022-11-16T11:31:01.507Z,7.10
2022-11-16T11:33:32.306Z,5.55
2022-11-16T11:36:05.755Z,9.10
2022-11-16T11:38:33.803Z,5.90
2022-11-16T11:41:05.038Z,5.75
2022-11-16T11:43:34.930Z,4.47
2022-11-16T11:46:13.059Z,5.97
2022-11-16T11:48:50.323Z,8.25
2022-11-16T11:51:26.348Z,7.38
2022-11-16T11:53:56.931Z,6.95
2022-11-16T11:56:25.697Z,6.28
2022-11-16T11:58:53.987Z,8.38
2022-11-16T12:01:35.964Z,10.07
2022-11-16T12:04:42.045Z,14.68
2022-11-16T12:07:22.713Z,6.47
2022-11-16T12:09:57.514Z,11.80
2022-11-16T12:15:08.999Z,3.80
2022-11-16T12:17:49.107Z,12.13
2022-11-16T12:20:29.229Z,8.77
2022-11-16T12:23:16.876Z,4.03
2022-11-16T12:25:55.625Z,4.60
2022-11-16T12:28:38.688Z,4.18
2022-11-16T12:31:27.215Z,2.28
2022-11-16T12:34:01.515Z,2.05
2022-11-16T12:36:38.346Z,2.78
2022-11-16T12:39:17.246Z,3.10
2022-11-16T12:42:08.701Z,1.92
2022-11-16T12:44:55.320Z,2.67
2022-11-16T12:47:34.245Z,1.75
2022-11-16T12:50:09.492Z,1.83
2022-11-16T12:53:07.304Z,1.90
2022-11-16T12:55:42.222Z,1.80
2022-11-16T12:58:20.282Z,1.75
2022-11-16T13:00:59.486Z,1.00
2022-11-16T13:03:34.436Z,1.90
2022-11-16T13:06:05.581Z,1.30
2022-11-16T13:08:38.838Z,1.50
2022-11-16T13:11:15.212Z,1.30
2022-11-16T13:13:51.362Z,0.85
2022-11-16T13:16:21.831Z,1.27
2022-11-16T13:18:49.487Z,1.17
2022-11-16T13:21:27.063Z,1.00
2022-11-16T13:24:06.491Z,1.25
2022-11-16T13:26:42.515Z,1.10
2022-11-16T13:29:19.658Z,1.17
2022-11-16T13:31:53.704Z,1.38
2022-11-16T13:34:25.134Z,1.10
2022-11-16T13:36:52.654Z,1.23
2022-11-16T13:39:22.818Z,1.10
2022-11-16T13:42:06.272Z,1.40
2022-11-16T13:44:34.500Z,1.05
2022-11-16T13:47:05.098Z,0.80
2022-11-16T13:49:38.937Z,1.00
2022-11-16T13:52:23.065Z,1.30
2022-11-16T13:54:53.686Z,0.77
2022-11-16T13:57:26.060Z,0.80
2022-11-16T14:00:09.307Z,1.10
2022-11-16T14:02:38.719Z,0.95
2022-11-16T14:05:15.695Z,1.08
2022-11-16T14:07:46.335Z,0.70
2022-11-16T14:10:54.611Z,0.95
2022-11-16T14:13:40.528Z,0.95
2022-11-16T14:16:54.036Z,0.80
2022-11-16T14:19:55.289Z,1.08
2022-11-16T14:22:51.559Z,1.05
2022-11-16T14:25:29.936Z,0.82
2022-11-16T14:28:09.971Z,1.00
2022-11-16T14:30:52.133Z,0.80
2022-11-16T14:33:30.317Z,1.30
2022-11-16T14:35:58.224Z,0.93
2022-11-16T14:38:30.926Z,0.80
2022-11-16T14:41:00.347Z,1.17
2022-11-16T14:43:30.947Z,0.73
2022-11-16T14:46:04.234Z,1.05
2022-11-16T14:48:32.499Z,1.13
2022-11-16T14:51:05.344Z,1.20
2022-11-16T14:53:36.101Z,0.57
2022-11-16T14:56:11.858Z,1.40
2022-11-16T14:58:40.241Z,1.70
2022-11-16T15:01:15.142Z,1.10
2022-11-16T15:03:52.485Z,1.00
2022-11-16T15:06:20.239Z,1.10
2022-11-16T15:08:53.115Z,1.60
2022-11-16T15:11:48.019Z,0.90
2022-11-16T15:14:20.061Z,0.85
2022-11-16T15:16:54.292Z,1.10
2022-11-16T15:19:22.540Z,1.40
2022-11-16T15:21:54.898Z,2.20
2022-11-16T15:24:30.384Z,2.22
2022-11-16T15:27:10.032Z,1.77
2022-11-16T15:29:37.961Z,2.28
2022-11-16T15:32:07.863Z,1.60
2022-11-16T15:34:35.348Z,1.67
2022-11-16T15:37:02.804Z,1.52
2022-11-16T15:39:35.895Z,2.60
2022-11-16T15:42:04.458Z,2.20
2022-11-16T15:47:00.591Z,2.55
2022-11-16T15:49:32.270Z,2.17
2022-11-16T15:52:00.329Z,2.28
2022-11-16T15:54:29.687Z,2.38
2022-11-16T15:57:07.700Z,2.47
2022-11-16T15:59:37.975Z,2.00
2022-11-16T16:02:05.837Z,2.28
2022-11-16T16:04:34.662Z,2.78
2022-11-16T16:07:02.229Z,2.28
2022-11-16T16:09:32.856Z,1.98
2022-11-16T16:12:18.009Z,2.13
2022-11-16T16:14:46.432Z,2.60
2022-11-16T16:17:24.160Z,2.10
2022-11-16T16:19:57.384Z,1.90
2022-11-16T16:22:27.075Z,1.30
2022-11-16T16:24:54.816Z,1.35
2022-11-16T16:27:23.588Z,1.33
2022-11-16T16:32:25.079Z,0.93
2022-11-16T16:34:53.267Z,0.73
2022-11-16T16:37:23.228Z,0.80
2022-11-16T16:39:50.663Z,1.55
2022-11-16T16:42:18.696Z,1.45
2022-11-16T16:44:48.035Z,1.52
2022-11-16T16:47:16.396Z,1.13
2022-11-16T16:49:44.495Z,1.52
2022-11-16T16:52:13.287Z,0.80
2022-11-16T16:54:42.419Z,1.00
2022-11-16T16:57:14.052Z,0.73
2022-11-16T16:59:41.480Z,0.95
2022-11-16T17:02:11.584Z,1.00
2022-11-16T17:04:39.260Z,2.40
2022-11-16T17:07:07.163Z,2.05
2022-11-16T17:09:34.644Z,1.67
2022-11-16T17:12:03.440Z,2.03
2022-11-16T17:16:58.231Z,2.10
2022-11-16T17:19:25.686Z,2.10
2022-11-16T17:21:53.362Z,2.80
2022-11-16T17:24:20.884Z,2.78
2022-11-16T17:26:48.709Z,2.55
2022-11-16T17:29:17.559Z,3.08
2022-11-16T17:31:47.442Z,3.28
2022-11-16T17:34:14.922Z,2.40
2022-11-16T17:36:42.518Z,2.67
2022-11-16T17:39:09.982Z,2.05
2022-11-16T17:41:38.105Z,2.20
2022-11-16T17:44:06.279Z,1.55
2022-11-16T17:46:35.716Z,1.50
2022-11-16T17:49:03.487Z,0.88
2022-11-16T17:51:30.969Z,0.80
2022-11-16T17:53:58.397Z,0.68
2022-11-16T17:56:27.507Z,1.02
2022-11-16T17:58:55.865Z,1.83
2022-11-16T18:01:23.799Z,1.75
2022-11-16T18:03:52.765Z,1.60
2022-11-16T18:06:22.348Z,3.25
2022-11-16T18:08:50.239Z,4.45
2022-11-16T18:11:19.714Z,2.88
2022-11-16T18:13:48.146Z,3.88
2022-11-16T18:16:17.483Z,3.95
2022-11-16T18:18:45.908Z,3.70
2022-11-16T18:21:20.488Z,2.88
2022-11-16T18:23:48.752Z,2.25
2022-11-16T18:26:18.639Z,2.40
2022-11-16T18:28:46.502Z,2.67
2022-11-16T18:31:17.375Z,1.70
2022-11-16T18:33:45.286Z,1.13
2022-11-16T18:36:15.119Z,1.50
2022-11-16T18:38:42.600Z,0.85
2022-11-16T18:41:19.386Z,1.00
2022-11-16T18:43:51.941Z,0.80
2022-11-16T18:46:19.950Z,1.15
2022-11-16T18:48:47.585Z,0.82
2022-11-16T18:51:17.714Z,0.90
2022-11-16T18:53:45.458Z,0.88
2022-11-16T18:56:13.235Z,1.65
2022-11-16T18:58:50.914Z,1.20
2022-11-16T19:01:21.641Z,1.23
2022-11-16T19:03:49.294Z,1.33
2022-11-16T19:06:18.851Z,1.35
2022-11-16T19:08:53.664Z,1.92
2022-11-16T19:11:23.663Z,4.55
2022-11-16T19:13:53.840Z,3.38
2022-11-16T19:16:21.621Z,3.45
2022-11-16T19:18:49.046Z,4.07
2022-11-16T19:21:19.253Z,6.07
2022-11-16T19:23:48.380Z,5.05
2022-11-16T19:26:17.886Z,2.35
2022-11-16T19:28:46.858Z,1.50
2022-11-16T19:31:16.757Z,1.33
2022-11-16T19:33:45.242Z,1.30
2022-11-16T19:36:14.429Z,1.25
2022-11-16T19:38:43.960Z,1.30
2022-11-16T19:41:13.050Z,1.27
2022-11-16T19:43:40.830Z,1.20
2022-11-16T19:46:09.898Z,2.10
2022-11-16T19:48:37.766Z,1.40
2022-11-16T19:51:06.763Z,1.67
2022-11-16T19:53:34.638Z,1.95
2022-11-16T19:56:04.184Z,2.03
2022-11-16T19:58:32.002Z,1.67
2022-11-16T20:01:03.803Z,2.00
2022-11-16T20:03:31.918Z,1.80
2022-11-16T20:06:10.515Z,1.85
2022-11-16T20:08:38.072Z,2.20
2022-11-16T20:11:14.426Z,2.05
2022-11-16T20:13:42.869Z,2.55
2022-11-16T20:16:12.274Z,3.05
2022-11-16T20:18:40.945Z,2.35
2022-11-16T20:21:11.265Z,3.10
2022-11-16T20:23:38.692Z,3.65
2022-11-16T20:26:06.903Z,2.85
2022-11-16T20:28:36.471Z,2.65
2022-11-16T20:31:05.212Z,2.58
2022-11-16T20:36:02.763Z,2.75
2022-11-16T20:38:30.396Z,2.25
2022-11-16T20:40:57.853Z,3.22
2022-11-16T20:43:25.297Z,2.97
2022-11-16T20:45:54.718Z,3.92
2022-11-16T20:48:22.211Z,3.15
2022-11-16T20:50:53.744Z,2.90
2022-11-16T20:53:22.162Z,3.83
2022-11-16T20:55:50.133Z,4.32
2022-11-16T20:58:22.556Z,3.20
2022-11-16T21:00:50.881Z,2.92
2022-11-16T21:03:19.692Z,3.00
2022-11-16T21:08:18.389Z,3.58
2022-11-16T21:10:48.106Z,3.30
2022-11-16T21:13:31.594Z,3.20
2022-11-16T21:16:01.092Z,3.95
2022-11-16T21:18:30.946Z,4.55
2022-11-16T21:20:59.754Z,3.40
2022-11-16T21:23:28.647Z,2.90
2022-11-16T21:25:56.445Z,2.40
2022-11-16T21:28:25.599Z,2.67
2022-11-16T21:30:57.595Z,3.67
2022-11-16T21:33:25.536Z,2.78
2022-11-16T21:35:54.815Z,3.33
2022-11-16T21:38:23.487Z,3.00
2022-11-16T21:40:51.105Z,3.75
2022-11-16T21:43:18.636Z,2.63
2022-11-16T21:45:47.279Z,2.47
2022-11-16T21:48:15.171Z,2.58
2022-11-16T21:50:42.670Z,2.50
2022-11-16T21:53:11.747Z,2.80
2022-11-16T21:55:39.171Z,2.90
2022-11-16T21:58:06.591Z,3.15
2022-11-16T22:00:34.027Z,4.00
2022-11-16T22:03:01.447Z,3.30
2022-11-16T22:05:46.761Z,3.17
2022-11-16T22:08:15.529Z,3.35
2022-11-16T22:13:10.572Z,2.72
2022-11-16T22:15:38.346Z,3.15
2022-11-16T22:18:06.104Z,3.10
2022-11-16T22:20:33.547Z,3.95
2022-11-16T22:23:00.973Z,4.72
2022-11-16T22:25:29.967Z,4.65
2022-11-16T22:30:51.193Z,4.63
2022-11-16T22:33:19.292Z,3.85
2022-11-16T22:35:47.959Z,2.88
2022-11-16T22:38:15.439Z,3.72
2022-11-16T22:40:49.552Z,3.72
2022-11-16T22:43:16.975Z,3.42
2022-11-16T22:45:44.383Z,2.95
2022-11-16T22:48:11.867Z,3.60
2022-11-16T22:50:39.319Z,4.32
2022-11-16T22:53:07.783Z,4.20
2022-11-16T22:55:36.594Z,4.80
2022-11-16T23:00:38.956Z,3.38
2022-11-16T23:03:09.373Z,3.33
2022-11-16T23:05:36.823Z,3.55
2022-11-16T23:08:04.291Z,5.00
2022-11-16T23:10:51.721Z,4.43
2022-11-16T23:13:43.463Z,3.83
2022-11-16T23:16:10.936Z,3.13
2022-11-16T23:18:38.356Z,5.28
2022-11-16T23:21:23.496Z,4.55
2022-11-16T23:24:20.237Z,4.43
2022-11-16T23:27:05.326Z,1.27
2022-11-16T23:29:34.141Z,5.85
2022-11-16T23:44:37.235Z,2.65
2022-11-16T23:54:26.623Z,3.08
2022-11-16T23:56:54.104Z,3.60
2022-11-16T23:59:21.549Z,5.10
